Terminal Aerodrome Forecast
Issued by NWS Detroit/Pontiac, MI

Home | Current Version | Previous Version | Text Only | Print | Product List | Glossary On
Versions: 1 2 3 4 5 6 7 8 9 10 11 12 13 14 15 16 17 18 19 20 21 22 23 24 25 26 27 28 29 30 31 32 33 34
000
FTUS43 KDTX 202200 AAC
TAFDTW
TAF AMD
KDTW 202209Z 2022/2124 24010KT P6SM BKN035 OVC070
      TEMPO 2022/2102 BKN025 OVC040
     FM210800 32008KT P6SM OVC015
     FM211400 33011G20KT P6SM -SHRA OVC025
     FM211800 34012G21KT P6SM OVC025=

USA.gov is the U.S. government's official web portal to all federal, state and local government web resources and services.